Time;durP1;ratioP1;P1;durP2;ratioP2;P2;SDS_P1;SDS_P2;PMS_P1;PMS_P2;Temp;Humidity;BMP_temperature;BMP_pressure;BME280_temperature;BME280_humidity;BME280_pressure;Samples;Min_cycle;Max_cycle;Signal;HPM_P1;HPM_P2
2021/08/21 00:00:43;;;;;;;0.30;0.30;;;17.40;99.90;;;;;;5018054;28;20060;-75
2021/08/21 00:03:09;;;;;;;0.32;0.32;;;17.30;99.90;;;;;;5033554;28;20090;-75
2021/08/21 00:05:36;;;;;;;0.30;0.30;;;17.20;99.90;;;;;;5034504;28;20066;-75
2021/08/21 00:08:02;;;;;;;0.20;0.20;;;17.20;99.90;;;;;;5052042;28;20433;-75
2021/08/21 00:10:29;;;;;;;0.10;0.10;;;17.20;99.90;;;;;;5052230;28;20029;-75
2021/08/21 00:12:56;;;;;;;0.10;0.10;;;17.10;99.90;;;;;;5052074;28;20017;-75
2021/08/21 00:15:22;;;;;;;0.10;0.10;;;17.10;99.90;;;;;;5034288;28;20025;-75
2021/08/21 00:17:48;;;;;;;0.20;0.20;;;17.30;99.90;;;;;;5051865;28;20021;-75
2021/08/21 00:20:14;;;;;;;0.10;0.10;;;17.40;99.90;;;;;;5052076;28;20033;-75
2021/08/21 00:22:41;;;;;;;0.90;0.90;;;17.30;99.90;;;;;;5051903;28;20032;-75
2021/08/21 00:25:07;;;;;;;0.10;0.10;;;17.40;99.90;;;;;;5017720;28;20025;-75
2021/08/21 00:27:33;;;;;;;0.73;0.73;;;17.30;99.90;;;;;;5017520;28;21937;-75
2021/08/21 00:29:59;;;;;;;0.15;0.15;;;17.30;99.90;;;;;;5033813;28;20053;-75
2021/08/21 00:32:25;;;;;;;0.10;0.10;;;17.30;99.90;;;;;;5051850;28;20372;-75
2021/08/21 00:34:50;;;;;;;0.10;0.10;;;17.30;99.90;;;;;;5017589;28;20032;-75
2021/08/21 00:37:16;;;;;;;0.20;0.20;;;17.20;99.90;;;;;;5017198;28;20032;-75
2021/08/21 00:39:42;;;;;;;0.20;0.20;;;17.00;99.90;;;;;;5033549;28;20028;-75
2021/08/21 00:42:08;;;;;;;0.20;0.20;;;17.00;99.90;;;;;;5051810;28;20027;-75
2021/08/21 00:44:34;;;;;;;0.10;0.10;;;17.20;99.90;;;;;;5033817;28;20025;-75
2021/08/21 00:47:21;;;;;;;0.10;0.10;;;17.20;99.90;;;;;;5017170;28;20044;-76
2021/08/21 00:49:54;;;;;;;0.10;0.10;;;17.20;99.90;;;;;;5033804;28;20488;-75
2021/08/21 00:52:28;;;;;;;0.10;0.10;;;17.10;99.90;;;;;;5051869;28;20430;-75
2021/08/21 00:54:56;;;;;;;0.10;0.10;;;17.00;99.90;;;;;;5051671;28;20028;-75
2021/08/21 00:57:23;;;;;;;0.10;0.10;;;17.00;99.90;;;;;;5051780;28;20028;-75
2021/08/21 00:59:51;;;;;;;0.10;0.10;;;17.10;99.90;;;;;;5033579;28;20078;-75
2021/08/21 01:02:18;;;;;;;0.20;0.20;;;17.10;99.90;;;;;;5033667;28;20380;-75
2021/08/21 01:04:49;;;;;;;0.13;0.13;;;17.00;99.90;;;;;;5033832;28;20388;-75
2021/08/21 01:07:28;;;;;;;0.10;0.10;;;16.80;99.90;;;;;;5051596;28;20017;-75
2021/08/21 01:09:55;;;;;;;0.13;0.13;;;16.80;99.90;;;;;;5051658;28;20048;-75
2021/08/21 01:12:22;;;;;;;0.10;0.10;;;16.90;99.90;;;;;;5017228;28;20499;-76
2021/08/21 01:14:50;;;;;;;1.45;1.45;;;17.00;99.90;;;;;;5037130;28;20388;-75
2021/08/21 01:17:17;;;;;;;0.10;0.10;;;16.90;99.90;;;;;;5037310;28;20033;-75
2021/08/21 01:19:46;;;;;;;0.10;0.10;;;16.80;99.90;;;;;;5055145;28;20032;-75
2021/08/21 01:22:24;;;;;;;0.10;0.10;;;16.90;99.90;;;;;;5055124;28;20124;-74
2021/08/21 01:24:51;;;;;;;0.10;0.10;;;16.70;99.90;;;;;;5055307;28;20059;-75
2021/08/21 01:27:25;;;;;;;1.50;0.88;;;16.70;99.90;;;;;;5037322;28;20025;-75
2021/08/21 01:29:52;;;;;;;0.60;0.40;;;16.60;99.90;;;;;;5054956;28;20021;-75
2021/08/21 01:32:19;;;;;;;0.13;0.13;;;16.50;99.90;;;;;;5020724;28;20021;-75
2021/08/21 01:34:46;;;;;;;0.30;0.30;;;16.60;99.90;;;;;;5055044;28;20029;-75
2021/08/21 01:37:20;;;;;;;0.10;0.10;;;16.70;99.90;;;;;;5037191;28;20025;-75
2021/08/21 01:39:47;;;;;;;0.20;0.20;;;16.70;99.90;;;;;;5054841;28;20028;-75
2021/08/21 01:42:13;;;;;;;0.10;0.10;;;16.70;99.90;;;;;;5054931;28;20488;-75
2021/08/21 01:44:39;;;;;;;0.10;0.10;;;16.90;99.90;;;;;;5020723;28;20047;-75
2021/08/21 01:47:04;;;;;;;0.30;0.30;;;17.00;99.90;;;;;;5036666;28;20033;-75
2021/08/21 01:49:30;;;;;;;0.10;0.10;;;17.00;99.90;;;;;;5054483;28;20021;-75
2021/08/21 01:52:03;;;;;;;0.10;0.10;;;16.90;99.90;;;;;;5036913;28;20050;-75
2021/08/21 01:54:30;;;;;;;0.35;0.35;;;17.00;99.90;;;;;;5054596;28;20028;-75
2021/08/21 01:56:59;;;;;;;0.10;0.10;;;17.10;99.90;;;;;;5054706;28;20384;-75
2021/08/21 01:59:44;;;;;;;0.10;0.10;;;17.10;99.90;;;;;;5036441;28;20396;-75
2021/08/21 02:02:18;;;;;;;0.10;0.10;;;17.20;99.90;;;;;;5036798;28;20096;-75
2021/08/21 02:04:44;;;;;;;0.10;0.10;;;17.30;99.90;;;;;;5054550;28;20029;-75
2021/08/21 02:07:10;;;;;;;0.10;0.10;;;17.40;99.90;;;;;;5036603;28;20032;-75
2021/08/21 02:09:37;;;;;;;0.10;0.10;;;17.50;99.90;;;;;;5019751;28;20025;-75
2021/08/21 02:12:05;;;;;;;0.10;0.10;;;17.40;99.90;;;;;;5036458;28;20025;-75
2021/08/21 02:14:31;;;;;;;0.10;0.10;;;17.40;99.90;;;;;;5054171;28;20090;-75
2021/08/21 02:17:00;;;;;;;0.10;0.10;;;17.30;99.90;;;;;;5036553;28;20021;-75
2021/08/21 02:19:26;;;;;;;0.20;0.20;;;17.20;99.90;;;;;;5019651;28;20029;-75
2021/08/21 02:21:53;;;;;;;0.10;0.10;;;17.20;99.90;;;;;;5036344;28;20055;-75
2021/08/21 02:24:24;;;;;;;0.10;0.10;;;17.10;99.90;;;;;;5035902;28;20032;-75
2021/08/21 02:26:54;;;;;;;0.10;0.10;;;17.00;99.90;;;;;;5054156;28;20029;-75
2021/08/21 02:29:20;;;;;;;0.17;0.17;;;16.90;99.90;;;;;;5035751;28;20378;-75
2021/08/21 02:31:46;;;;;;;0.10;0.10;;;16.90;99.90;;;;;;5054380;28;20096;-75
2021/08/21 02:34:11;;;;;;;0.10;0.10;;;16.80;99.90;;;;;;5036121;28;20017;-75
2021/08/21 02:36:37;;;;;;;0.10;0.10;;;16.90;99.90;;;;;;5036370;28;20025;-75
2021/08/21 02:39:04;;;;;;;0.10;0.10;;;17.00;99.90;;;;;;5035792;28;20028;-75
2021/08/21 02:41:30;;;;;;;0.20;0.20;;;17.00;99.90;;;;;;5053932;28;20029;-75
2021/08/21 02:43:55;;;;;;;0.10;0.10;;;17.20;99.90;;;;;;5035869;28;20025;-75
2021/08/21 02:46:21;;;;;;;0.15;0.15;;;17.30;99.90;;;;;;5035604;28;20397;-75
2021/08/21 02:48:47;;;;;;;0.17;0.17;;;17.30;99.90;;;;;;5035391;28;20029;-75
2021/08/21 02:51:14;;;;;;;0.10;0.10;;;17.30;99.90;;;;;;5035826;28;20092;-75
2021/08/21 02:53:40;;;;;;;0.45;0.45;;;17.20;99.90;;;;;;5035658;28;20021;-75
2021/08/21 02:56:06;;;;;;;0.08;0.08;;;17.20;99.90;;;;;;5053509;28;20028;-75
2021/08/21 02:58:31;;;;;;;0.10;0.10;;;17.10;99.90;;;;;;5035409;28;20024;-75
2021/08/21 03:00:57;;;;;;;0.20;0.20;;;17.10;99.90;;;;;;5035553;28;20025;-75
2021/08/21 03:03:23;;;;;;;0.10;0.10;;;17.10;99.90;;;;;;5053638;28;20025;-75
2021/08/21 03:05:48;;;;;;;17.67;3.05;;;17.10;99.90;;;;;;5053160;28;20025;-75
2021/08/21 03:08:14;;;;;;;0.10;0.10;;;17.10;99.90;;;;;;5052989;28;20040;-75
2021/08/21 03:10:40;;;;;;;0.10;0.10;;;16.90;99.90;;;;;;5035306;28;20472;-75
2021/08/21 03:13:06;;;;;;;0.17;0.17;;;16.90;99.90;;;;;;5035439;28;20036;-75
2021/08/21 03:15:32;;;;;;;0.10;0.10;;;16.70;99.90;;;;;;5053088;28;20111;-75
2021/08/21 03:17:59;;;;;;;0.10;0.10;;;16.50;99.90;;;;;;5052956;28;20048;-75
2021/08/21 03:20:26;;;;;;;0.10;0.10;;;16.30;99.90;;;;;;5018602;28;20021;-75
2021/08/21 03:22:52;;;;;;;0.10;0.10;;;16.20;99.90;;;;;;5035178;28;20048;-75
2021/08/21 03:25:19;;;;;;;0.35;0.35;;;16.10;99.90;;;;;;5018532;28;20500;-75
2021/08/21 03:27:44;;;;;;;0.10;0.10;;;16.00;99.90;;;;;;5034836;28;20035;-75
2021/08/21 03:30:10;;;;;;;0.10;0.10;;;15.90;99.90;;;;;;5053172;28;20095;-75
2021/08/21 03:32:36;;;;;;;0.20;0.20;;;15.90;99.90;;;;;;5035057;28;20039;-75
2021/08/21 03:35:03;;;;;;;0.20;0.20;;;16.00;99.90;;;;;;5052743;28;20017;-75
2021/08/21 03:37:29;;;;;;;0.10;0.10;;;16.00;99.90;;;;;;5034895;28;20025;-75
2021/08/21 03:39:56;;;;;;;0.17;0.17;;;16.10;99.90;;;;;;5052460;28;20125;-75
2021/08/21 03:42:22;;;;;;;0.10;0.10;;;16.10;99.90;;;;;;5034787;28;20052;-75
2021/08/21 03:44:48;;;;;;;0.10;0.10;;;16.20;99.90;;;;;;5052410;28;20385;-75
2021/08/21 03:47:13;;;;;;;0.10;0.10;;;16.30;99.90;;;;;;5034511;28;20025;-75
2021/08/21 03:49:39;;;;;;;0.25;0.25;;;16.30;99.90;;;;;;5052322;28;20028;-75
2021/08/21 03:52:05;;;;;;;0.10;0.10;;;16.20;99.90;;;;;;5034527;28;20024;-75
2021/08/21 03:54:31;;;;;;;0.10;0.10;;;16.00;99.90;;;;;;5052412;28;20021;-75
2021/08/21 03:56:56;;;;;;;3.03;0.60;;;16.00;99.90;;;;;;5052428;28;20484;-75
2021/08/21 03:59:22;;;;;;;0.70;0.52;;;16.00;99.90;;;;;;5052229;28;20025;-75
2021/08/21 04:01:48;;;;;;;0.10;0.10;;;16.00;99.90;;;;;;5034603;28;20487;-75
2021/08/21 04:04:14;;;;;;;0.65;0.60;;;15.80;99.90;;;;;;5052188;28;20041;-75
2021/08/21 04:06:41;;;;;;;0.30;0.30;;;15.80;99.90;;;;;;5034529;28;20025;-75
2021/08/21 04:09:07;;;;;;;0.13;0.13;;;15.80;99.90;;;;;;5034031;28;20060;-75
2021/08/21 04:11:32;;;;;;;0.10;0.10;;;15.90;99.90;;;;;;5052338;28;20048;-75
2021/08/21 04:13:58;;;;;;;0.10;0.10;;;15.90;99.90;;;;;;5052230;28;20063;-75
2021/08/21 04:16:24;;;;;;;0.10;0.10;;;15.80;99.90;;;;;;5034082;28;20028;-75
2021/08/21 04:18:50;;;;;;;0.55;0.55;;;16.00;99.90;;;;;;5051940;28;20021;-76
2021/08/21 04:21:16;;;;;;;0.10;0.10;;;16.00;99.90;;;;;;5033890;28;20489;-76
2021/08/21 04:23:41;;;;;;;0.10;0.10;;;16.00;99.90;;;;;;5034164;28;20640;-76
2021/08/21 04:26:07;;;;;;;0.20;0.20;;;16.00;99.90;;;;;;5033989;28;20389;-76
2021/08/21 04:28:34;;;;;;;1.05;0.55;;;16.00;99.90;;;;;;5033779;28;20044;-76
2021/08/21 04:31:00;;;;;;;0.82;0.57;;;15.80;99.90;;;;;;5017462;28;20024;-76
2021/08/21 04:33:26;;;;;;;0.17;0.17;;;15.60;99.90;;;;;;5017624;28;20028;-76
2021/08/21 04:35:52;;;;;;;0.10;0.10;;;15.60;99.90;;;;;;5033993;28;20025;-76
2021/08/21 04:38:19;;;;;;;0.10;0.10;;;15.70;99.90;;;;;;5051687;28;20064;-76
2021/08/21 04:40:47;;;;;;;0.13;0.13;;;15.80;99.90;;;;;;5033948;28;20025;-76
2021/08/21 04:43:17;;;;;;;0.10;0.10;;;15.90;99.90;;;;;;5051949;28;20488;-75
2021/08/21 04:45:43;;;;;;;0.50;0.50;;;16.00;99.90;;;;;;5051548;28;20017;-76
2021/08/21 04:48:10;;;;;;;0.40;0.40;;;16.00;99.90;;;;;;5052841;28;20067;-76
2021/08/21 04:50:37;;;;;;;0.40;0.40;;;15.90;99.90;;;;;;5021715;28;20071;-76
2021/08/21 04:53:06;;;;;;;0.10;0.10;;;15.90;99.90;;;;;;5055956;28;20052;-76
2021/08/21 04:55:33;;;;;;;0.10;0.10;;;15.80;99.90;;;;;;5037856;28;20047;-75
2021/08/21 04:57:59;;;;;;;0.20;0.20;;;15.80;99.90;;;;;;5037771;28;20365;-76
2021/08/21 05:00:25;;;;;;;0.17;0.17;;;15.80;99.90;;;;;;5055744;28;20051;-76
2021/08/21 05:02:53;;;;;;;1.67;1.55;;;15.80;99.90;;;;;;5055945;28;20021;-76
2021/08/21 05:05:20;;;;;;;0.13;0.13;;;15.70;99.90;;;;;;5055324;28;20473;-75
2021/08/21 05:07:49;;;;;;;3.40;1.55;;;15.60;99.90;;;;;;5055337;28;20099;-76
2021/08/21 05:10:15;;;;;;;1.45;0.90;;;15.60;99.90;;;;;;5037499;28;20124;-76
2021/08/21 05:12:43;;;;;;;1.08;1.00;;;15.60;99.90;;;;;;5055526;28;20057;-76
2021/08/21 05:15:11;;;;;;;0.30;0.30;;;15.60;99.90;;;;;;5037387;28;20028;-76
2021/08/21 05:17:38;;;;;;;0.10;0.10;;;15.80;99.90;;;;;;5055217;28;20029;-76
2021/08/21 05:23:04;;;;;;;2.63;1.75;;;16.00;99.90;;;;;;5009323;28;20091;-76
2021/08/21 05:25:31;;;;;;;0.90;0.90;;;15.90;99.90;;;;;;5020604;28;20032;-76
2021/08/21 05:27:58;;;;;;;0.90;0.85;;;15.70;99.90;;;;;;5037139;28;20036;-76
2021/08/21 05:30:27;;;;;;;2.65;2.15;;;15.60;99.90;;;;;;5055012;28;20029;-76
2021/08/21 05:32:55;;;;;;;3.05;1.70;;;15.70;99.90;;;;;;5037469;28;20021;-76
2021/08/21 05:35:21;;;;;;;0.30;0.30;;;15.80;99.90;;;;;;5037053;28;20025;-76
2021/08/21 05:37:46;;;;;;;0.52;0.52;;;15.90;99.90;;;;;;5054867;28;20031;-75
2021/08/21 05:40:12;;;;;;;2.13;1.73;;;16.00;99.90;;;;;;5055222;28;20357;-76
2021/08/21 05:42:38;;;;;;;1.73;1.63;;;16.10;99.90;;;;;;5055383;28;20024;-76
2021/08/21 05:45:04;;;;;;;2.83;0.95;;;16.10;99.90;;;;;;5037761;28;20029;-77
2021/08/21 05:47:30;;;;;;;0.10;0.10;;;16.30;99.90;;;;;;5021184;28;20337;-77
2021/08/21 05:50:00;;;;;;;1.20;1.10;;;16.40;99.90;;;;;;5037643;28;20029;-75
2021/08/21 05:52:26;;;;;;;0.00;0.00;;;16.60;99.90;;;;;;5054732;28;20032;-74
2021/08/21 05:54:52;;;;;;;0.85;0.70;;;16.70;99.90;;;;;;5036918;28;20071;-76
2021/08/21 05:57:18;;;;;;;0.70;0.45;;;16.80;99.90;;;;;;5054898;28;20021;-76
2021/08/21 05:59:44;;;;;;;0.55;0.45;;;17.00;99.90;;;;;;5018864;28;20314;-76
2021/08/21 06:02:09;;;;;;;0.57;0.57;;;17.20;99.90;;;;;;5054874;28;20013;-76
2021/08/21 06:04:35;;;;;;;0.47;0.47;;;17.10;99.90;;;;;;5019942;28;20051;-76
2021/08/21 06:07:01;;;;;;;1.23;0.85;;;17.20;99.90;;;;;;5036781;28;20047;-76
2021/08/21 06:09:27;;;;;;;0.20;0.20;;;17.30;99.90;;;;;;5054336;28;20025;-76
2021/08/21 06:11:52;;;;;;;0.30;0.30;;;17.60;99.90;;;;;;5036989;28;20036;-76
2021/08/21 06:14:18;;;;;;;0.10;0.10;;;17.80;99.90;;;;;;5054352;28;20048;-76
2021/08/21 06:16:44;;;;;;;0.10;0.10;;;17.90;99.90;;;;;;5036296;28;20460;-76
2021/08/21 06:19:10;;;;;;;0.10;0.10;;;18.00;99.90;;;;;;5036241;28;20021;-76
2021/08/21 06:21:36;;;;;;;0.00;0.00;;;18.10;99.90;;;;;;5051159;22;21091;-76
2021/08/21 06:24:02;;;;;;;0.10;0.10;;;18.20;99.90;;;;;;5053797;28;20037;-75
2021/08/21 06:26:28;;;;;;;0.10;0.10;;;18.30;99.90;;;;;;5036540;28;20028;-75
2021/08/21 06:28:54;;;;;;;0.17;0.17;;;18.40;99.90;;;;;;5019929;28;20025;-75
2021/08/21 06:31:20;;;;;;;0.10;0.10;;;18.60;99.90;;;;;;5053997;28;20043;-75
2021/08/21 06:33:46;;;;;;;0.40;0.40;;;18.70;99.90;;;;;;5053989;28;20031;-75
2021/08/21 06:36:11;;;;;;;0.10;0.10;;;18.70;99.90;;;;;;5053796;28;20021;-75
2021/08/21 06:38:37;;;;;;;0.10;0.10;;;18.80;99.90;;;;;;5053852;28;20029;-73
2021/08/21 06:41:03;;;;;;;0.10;0.10;;;19.00;99.90;;;;;;5035956;28;20036;-75
2021/08/21 06:43:29;;;;;;;0.10;0.10;;;19.00;99.90;;;;;;5053870;28;20492;-75
2021/08/21 06:45:55;;;;;;;0.20;0.20;;;19.10;99.90;;;;;;5035892;28;20021;-75
2021/08/21 06:48:21;;;;;;;0.10;0.10;;;19.10;99.90;;;;;;5053868;28;20029;-75
2021/08/21 06:50:46;;;;;;;0.10;0.10;;;19.20;99.90;;;;;;5053653;28;20033;-75
2021/08/21 06:53:14;;;;;;;0.10;0.10;;;19.20;99.90;;;;;;5035827;28;20086;-75
2021/08/21 06:55:40;;;;;;;0.20;0.20;;;19.30;99.90;;;;;;5053876;28;20400;-75
2021/08/21 06:58:06;;;;;;;0.43;0.40;;;19.40;99.90;;;;;;5035594;28;20508;-75
2021/08/21 07:00:33;;;;;;;0.10;0.10;;;19.60;99.90;;;;;;5053455;28;20020;-75
2021/08/21 07:02:59;;;;;;;0.10;0.10;;;19.60;99.90;;;;;;5035636;28;20029;-75
2021/08/21 07:05:24;;;;;;;0.03;0.03;;;19.70;99.90;;;;;;5035540;28;20491;-75
2021/08/21 07:07:50;;;;;;;0.10;0.10;;;19.80;99.90;;;;;;5035315;28;20044;-75
2021/08/21 07:10:16;;;;;;;0.10;0.10;;;19.90;99.90;;;;;;5035367;28;20036;-75
2021/08/21 07:12:41;;;;;;;0.10;0.10;;;20.00;99.90;;;;;;5053044;28;20032;-75
2021/08/21 07:15:08;;;;;;;0.10;0.10;;;20.20;99.90;;;;;;5035346;28;20451;-75
2021/08/21 07:17:34;;;;;;;0.10;0.10;;;20.30;99.90;;;;;;5035008;28;20040;-75
2021/08/21 07:19:59;;;;;;;0.10;0.10;;;20.30;99.90;;;;;;5035402;28;20452;-75
2021/08/21 07:22:25;;;;;;;0.10;0.10;;;20.40;99.90;;;;;;5034978;28;20036;-75
2021/08/21 07:24:51;;;;;;;0.00;0.00;;;20.50;99.90;;;;;;5035109;28;20116;-75
2021/08/21 07:27:17;;;;;;;0.10;0.10;;;20.70;99.90;;;;;;5052962;28;20376;-75
2021/08/21 07:29:42;;;;;;;0.20;0.20;;;21.00;99.90;;;;;;5035216;28;20054;-75
2021/08/21 07:32:08;;;;;;;0.00;0.00;;;21.10;99.90;;;;;;5034984;28;20028;-75
2021/08/21 07:34:34;;;;;;;0.00;0.00;;;21.10;99.90;;;;;;5052906;28;20213;-75
2021/08/21 07:36:59;;;;;;;0.00;0.00;;;21.10;99.90;;;;;;5034825;28;20032;-73
2021/08/21 07:39:25;;;;;;;0.10;0.10;;;21.20;99.90;;;;;;5034820;28;20612;-73
2021/08/21 07:41:51;;;;;;;0.10;0.10;;;21.20;99.90;;;;;;5034901;28;20022;-73
2021/08/21 07:44:17;;;;;;;0.10;0.10;;;21.30;99.90;;;;;;5034725;28;20021;-73
2021/08/21 07:46:42;;;;;;;0.10;0.10;;;21.50;99.90;;;;;;5052385;28;20009;-73
2021/08/21 07:49:08;;;;;;;0.38;0.38;;;21.50;99.90;;;;;;5034693;28;20328;-73
2021/08/21 07:51:34;;;;;;;0.00;0.00;;;21.60;99.90;;;;;;5034404;28;20029;-73
2021/08/21 07:54:00;;;;;;;0.00;0.00;;;21.70;99.90;;;;;;5052248;28;20389;-73
2021/08/21 07:56:25;;;;;;;1.58;1.48;;;21.70;99.90;;;;;;5052427;28;20556;-73
2021/08/21 07:58:51;;;;;;;0.22;0.22;;;21.80;99.90;;;;;;5034673;28;20424;-72
2021/08/21 08:01:17;;;;;;;0.00;0.00;;;22.10;99.90;;;;;;5052397;28;20108;-72
2021/08/21 08:03:42;;;;;;;0.10;0.10;;;22.20;99.90;;;;;;5052196;28;20495;-73
2021/08/21 08:06:08;;;;;;;0.10;0.10;;;22.40;99.90;;;;;;5034241;28;20021;-73
2021/08/21 08:08:34;;;;;;;0.00;0.00;;;22.60;99.90;;;;;;5051997;28;20036;-73
2021/08/21 08:11:00;;;;;;;0.00;0.00;;;22.70;99.90;;;;;;5034132;28;20112;-73
2021/08/21 08:13:25;;;;;;;0.00;0.00;;;22.70;99.90;;;;;;5034019;28;20078;-73
2021/08/21 08:15:51;;;;;;;0.10;0.10;;;22.80;99.90;;;;;;5034245;28;20029;-73
2021/08/21 08:18:17;;;;;;;0.00;0.00;;;23.10;99.90;;;;;;5034198;28;20119;-73
2021/08/21 08:20:43;;;;;;;0.10;0.10;;;23.30;98.10;;;;;;5052017;28;20500;-73
2021/08/21 08:23:11;;;;;;;0.00;0.00;;;23.50;97.20;;;;;;5051227;28;20029;-73
2021/08/21 08:25:37;;;;;;;0.10;0.10;;;23.50;96.90;;;;;;5034043;28;20025;-73
2021/08/21 08:28:03;;;;;;;0.00;0.00;;;23.50;96.10;;;;;;5054104;28;20025;-74
2021/08/21 08:30:29;;;;;;;0.00;0.00;;;23.60;94.80;;;;;;5037221;28;20089;-73
2021/08/21 08:32:54;;;;;;;0.10;0.10;;;23.70;95.70;;;;;;5071755;28;20081;-74
2021/08/21 08:35:20;;;;;;;0.10;0.10;;;23.90;94.70;;;;;;5071835;28;20110;-73
2021/08/21 08:37:46;;;;;;;0.10;0.10;;;24.20;94.50;;;;;;5071255;28;20024;-73
2021/08/21 08:40:12;;;;;;;0.00;0.00;;;24.30;93.60;;;;;;5071813;28;20021;-73
2021/08/21 08:42:40;;;;;;;0.10;0.10;;;24.60;91.70;;;;;;5071696;28;20060;-75
2021/08/21 08:45:07;;;;;;;1.17;1.08;;;24.90;90.90;;;;;;5071695;28;20024;-74
2021/08/21 08:47:36;;;;;;;7.20;1.10;;;24.70;89.70;;;;;;5051776;28;20137;-73
2021/08/21 08:50:04;;;;;;;0.10;0.10;;;24.70;88.60;;;;;;5051590;28;20025;-76
2021/08/21 08:52:31;;;;;;;0.00;0.00;;;24.90;86.50;;;;;;5051663;28;20027;-76
2021/08/21 08:54:57;;;;;;;0.10;0.10;;;24.90;85.70;;;;;;5051673;28;20075;-73
2021/08/21 08:57:40;;;;;;;0.20;0.20;;;25.10;84.00;;;;;;5051701;28;20097;-75
2021/08/21 09:00:15;;;;;;;0.00;0.00;;;25.30;82.20;;;;;;5033791;28;20103;-75
2021/08/21 09:02:43;;;;;;;0.03;0.03;;;25.30;81.60;;;;;;5051761;28;20383;-73
2021/08/21 09:05:11;;;;;;;0.00;0.00;;;25.50;79.60;;;;;;5051457;28;20053;-73
2021/08/21 09:07:45;;;;;;;0.80;0.57;;;25.40;80.30;;;;;;5051368;28;20017;-76
2021/08/21 09:10:26;;;;;;;0.03;0.03;;;25.40;77.80;;;;;;5033547;28;20043;-74
2021/08/21 09:13:10;;;;;;;0.00;0.00;;;25.40;80.60;;;;;;5033575;28;20075;-74
2021/08/21 09:15:38;;;;;;;0.15;0.15;;;25.40;79.20;;;;;;5033419;28;20056;-73
2021/08/21 09:18:11;;;;;;;0.00;0.00;;;25.30;78.40;;;;;;5051052;28;20059;-73
2021/08/21 09:20:49;;;;;;;0.50;0.50;;;25.50;80.70;;;;;;5051309;28;20032;-73
2021/08/21 09:23:24;;;;;;;0.00;0.00;;;25.60;75.80;;;;;;5051260;28;20055;-73
2021/08/21 09:26:17;;;;;;;0.00;0.00;;;25.60;75.20;;;;;;5033328;28;20025;-73
2021/08/21 09:28:45;;;;;;;1.85;1.23;;;26.00;72.20;;;;;;5051026;28;20025;-73
2021/08/21 09:31:13;;;;;;;0.00;0.00;;;25.80;73.60;;;;;;5051384;28;20508;-74
2021/08/21 09:33:42;;;;;;;0.00;0.00;;;25.90;72.10;;;;;;5033715;28;20029;-73
2021/08/21 09:36:14;;;;;;;0.00;0.00;;;26.10;67.10;;;;;;5054921;28;20551;-73
2021/08/21 09:38:41;;;;;;;0.28;0.28;;;26.20;66.90;;;;;;5054577;28;20560;-73
2021/08/21 09:41:09;;;;;;;0.00;0.00;;;26.40;67.70;;;;;;5037221;28;20047;-73
2021/08/21 09:43:36;;;;;;;0.40;0.40;;;26.50;67.30;;;;;;5036933;28;20037;-73
2021/08/21 09:46:20;;;;;;;0.10;0.10;;;26.80;66.00;;;;;;5054784;28;20521;-73
2021/08/21 09:49:12;;;;;;;0.28;0.28;;;26.90;66.70;;;;;;5036545;28;20492;-73
2021/08/21 09:51:46;;;;;;;0.40;0.32;;;27.10;67.00;;;;;;5036999;28;20100;-73
2021/08/21 09:54:19;;;;;;;0.00;0.00;;;27.40;66.50;;;;;;5054649;28;20489;-73
2021/08/21 09:56:52;;;;;;;0.70;0.40;;;28.00;66.00;;;;;;5054638;28;20025;-74
2021/08/21 09:59:17;;;;;;;0.13;0.13;;;28.10;63.40;;;;;;5036102;28;20036;-73
2021/08/21 10:01:45;;;;;;;0.03;0.03;;;27.90;64.20;;;;;;5054668;28;20285;-73
2021/08/21 10:04:11;;;;;;;0.00;0.00;;;28.00;64.60;;;;;;5036397;28;20488;-73
2021/08/21 10:06:38;;;;;;;1.80;1.25;;;28.10;64.40;;;;;;5036393;28;20075;-74
2021/08/21 10:09:10;;;;;;;0.10;0.10;;;27.60;63.30;;;;;;5036218;28;20032;-73
2021/08/21 10:11:36;;;;;;;1.27;1.08;;;27.90;64.10;;;;;;5054211;28;20021;-74
2021/08/21 10:14:02;;;;;;;2.03;1.92;;;28.00;63.40;;;;;;5053990;28;20057;-74
2021/08/21 10:16:30;;;;;;;1.45;0.20;;;28.30;63.00;;;;;;5054162;28;20055;-73
2021/08/21 10:18:57;;;;;;;0.13;0.13;;;28.60;61.30;;;;;;5053946;28;20104;-73
2021/08/21 10:21:23;;;;;;;0.00;0.00;;;28.80;60.80;;;;;;5054018;28;20079;-73
2021/08/21 10:23:50;;;;;;;5.03;1.90;;;29.10;60.70;;;;;;5053883;28;20072;-73
2021/08/21 10:26:28;;;;;;;0.25;0.25;;;29.00;60.10;;;;;;5053820;28;20021;-73
2021/08/21 10:28:55;;;;;;;0.10;0.10;;;29.30;59.70;;;;;;5035745;28;20105;-73
2021/08/21 10:31:45;;;;;;;0.00;0.00;;;29.70;58.50;;;;;;5053661;28;20392;-73
2021/08/21 10:34:12;;;;;;;1.08;0.90;;;30.10;58.30;;;;;;5053106;28;20086;-73
2021/08/21 10:36:40;;;;;;;0.47;0.47;;;30.10;56.50;;;;;;5053393;28;20025;-73
2021/08/21 10:39:14;;;;;;;0.10;0.10;;;29.80;58.20;;;;;;5035424;28;20041;-74
2021/08/21 10:41:40;;;;;;;3.33;1.98;;;30.10;57.60;;;;;;5035722;28;20024;-73
2021/08/21 10:44:06;;;;;;;0.00;0.00;;;30.50;56.70;;;;;;5035705;28;20433;-73
2021/08/21 10:46:31;;;;;;;0.35;0.13;;;30.50;56.20;;;;;;5052833;28;20036;-73
2021/08/21 10:48:58;;;;;;;0.45;0.45;;;30.70;55.10;;;;;;5035399;28;20116;-73
2021/08/21 10:51:44;;;;;;;0.28;0.28;;;30.20;55.40;;;;;;5035931;28;20506;-73
2021/08/21 10:54:25;;;;;;;0.50;0.32;;;30.00;56.60;;;;;;5035598;28;20025;-72
2021/08/21 10:56:55;;;;;;;0.00;0.00;;;30.30;56.30;;;;;;5053528;28;20029;-73
2021/08/21 10:59:40;;;;;;;1.10;0.70;;;30.30;56.30;;;;;;5052704;28;20041;-73
2021/08/21 11:02:25;;;;;;;0.40;0.38;;;30.50;55.10;;;;;;5053388;28;20109;-73
2021/08/21 11:04:51;;;;;;;0.00;0.00;;;30.60;56.10;;;;;;5053231;28;20033;-73
2021/08/21 11:07:43;;;;;;;1.25;1.10;;;30.60;56.00;;;;;;5053264;28;20028;-73
2021/08/21 11:10:26;;;;;;;0.10;0.10;;;30.50;55.30;;;;;;5053281;28;20047;-73
2021/08/21 11:12:54;;;;;;;0.00;0.00;;;30.60;55.80;;;;;;5053277;28;20429;-73
2021/08/21 11:15:30;;;;;;;0.57;0.57;;;30.80;54.80;;;;;;5052902;28;20013;-73
2021/08/21 11:17:56;;;;;;;0.00;0.00;;;30.60;55.20;;;;;;5052861;28;20384;-73
2021/08/21 11:20:31;;;;;;;0.38;0.25;;;31.00;54.80;;;;;;5052957;28;20017;-73
2021/08/21 11:23:06;;;;;;;6.70;1.75;;;31.20;53.50;;;;;;5034973;28;20120;-73
2021/08/21 11:25:32;;;;;;;0.13;0.13;;;31.40;52.80;;;;;;5035174;28;20025;-73
2021/08/21 11:28:12;;;;;;;0.20;0.08;;;31.40;52.30;;;;;;5034673;28;20485;-73
2021/08/21 11:30:39;;;;;;;0.30;0.30;;;31.20;52.70;;;;;;5052991;28;20028;-74
2021/08/21 11:33:08;;;;;;;0.25;0.20;;;31.30;52.90;;;;;;5034838;28;20025;-73
2021/08/21 11:35:51;;;;;;;0.10;0.10;;;31.50;52.90;;;;;;5034787;28;20061;-73
2021/08/21 11:38:28;;;;;;;0.40;0.40;;;31.60;50.20;;;;;;5034525;28;20379;-73
2021/08/21 11:40:56;;;;;;;0.30;0.30;;;31.50;49.90;;;;;;5052581;28;20358;-73
2021/08/21 11:43:25;;;;;;;0.47;0.47;;;31.40;49.80;;;;;;5052621;28;20017;-74
2021/08/21 11:45:51;;;;;;;4.28;0.38;;;31.20;48.40;;;;;;5052308;28;20103;-73
2021/08/21 11:48:17;;;;;;;0.45;0.35;;;31.00;50.20;;;;;;5052255;28;20055;-73
2021/08/21 11:50:45;;;;;;;2.03;1.23;;;31.30;46.70;;;;;;5052369;28;20446;-73
2021/08/21 11:53:20;;;;;;;0.75;0.30;;;31.30;45.20;;;;;;5052336;28;20025;-73
2021/08/21 11:55:46;;;;;;;0.65;0.47;;;31.10;45.50;;;;;;5052234;28;20021;-73
2021/08/21 11:58:11;;;;;;;0.82;0.80;;;30.90;46.10;;;;;;5052083;28;20100;-73
2021/08/21 12:00:44;;;;;;;0.38;0.38;;;30.70;46.10;;;;;;5051899;28;20033;-73
2021/08/21 12:03:13;;;;;;;0.00;0.00;;;30.70;45.80;;;;;;5052246;28;20032;-73
2021/08/21 12:05:39;;;;;;;0.10;0.10;;;30.90;46.10;;;;;;5052157;28;20079;-73
2021/08/21 12:08:25;;;;;;;0.00;0.00;;;31.10;46.50;;;;;;5052034;28;20025;-73
2021/08/21 12:11:00;;;;;;;0.40;0.40;;;31.20;46.40;;;;;;5034118;28;20043;-73
2021/08/21 12:13:34;;;;;;;0.30;0.30;;;30.90;47.50;;;;;;5052068;28;20025;-73
2021/08/21 12:16:10;;;;;;;4.40;0.55;;;30.60;47.10;;;;;;5051798;28;20032;-73
2021/08/21 12:18:41;;;;;;;0.10;0.10;;;30.60;47.40;;;;;;5033907;28;20507;-73
2021/08/21 12:21:09;;;;;;;0.00;0.00;;;30.80;47.90;;;;;;5034195;28;20021;-73
2021/08/21 12:23:35;;;;;;;0.40;0.40;;;30.90;47.60;;;;;;5051829;28;20476;-73
2021/08/21 12:26:03;;;;;;;0.00;0.00;;;30.50;47.80;;;;;;5051780;28;20455;-73
2021/08/21 12:28:44;;;;;;;0.00;0.00;;;30.50;49.20;;;;;;5033805;28;20028;-73
2021/08/21 12:31:12;;;;;;;0.25;0.25;;;30.40;50.00;;;;;;5033961;28;20029;-73
2021/08/21 12:33:39;;;;;;;0.35;0.35;;;30.50;49.90;;;;;;5034086;28;20031;-73
2021/08/21 12:36:15;;;;;;;0.82;0.75;;;30.30;49.00;;;;;;5051498;28;20025;-73
2021/08/21 12:39:05;;;;;;;2.47;2.33;;;30.00;48.60;;;;;;5033715;28;20572;-73
2021/08/21 12:41:33;;;;;;;0.20;0.20;;;29.40;50.50;;;;;;5051622;28;20013;-73
2021/08/21 12:44:08;;;;;;;0.40;0.32;;;29.10;50.10;;;;;;5033670;28;20021;-73
2021/08/21 12:46:36;;;;;;;0.73;0.73;;;29.40;50.50;;;;;;5051566;28;20036;-73
2021/08/21 12:49:07;;;;;;;0.00;0.00;;;29.30;50.90;;;;;;5051647;28;20480;-73
2021/08/21 12:51:40;;;;;;;0.55;0.55;;;29.40;51.20;;;;;;5051551;28;20113;-73
2021/08/21 12:54:07;;;;;;;0.00;0.00;;;29.50;51.90;;;;;;5051451;28;20056;-73
2021/08/21 12:56:33;;;;;;;0.80;0.30;;;29.70;50.10;;;;;;5051507;28;20025;-73